createdAt,value
2022-08-11T00:01:54.028Z,21.52
2022-08-11T00:04:24.283Z,21.54
2022-08-11T00:06:52.292Z,21.49
2022-08-11T00:09:31.264Z,21.44
2022-08-11T00:11:59.166Z,21.38
2022-08-11T00:14:37.020Z,21.36
2022-08-11T00:17:10.745Z,21.34
2022-08-11T00:20:13.297Z,21.26
2022-08-11T00:22:32.742Z,21.22
2022-08-11T00:25:02.620Z,21.21
2022-08-11T00:27:34.942Z,21.15
2022-08-11T00:30:02.068Z,21.13
2022-08-11T00:32:29.966Z,21.13
2022-08-11T00:35:54.135Z,21.10
2022-08-11T00:37:53.565Z,21.02
2022-08-11T00:40:28.318Z,20.98
2022-08-11T00:43:39.249Z,20.90
2022-08-11T00:46:22.941Z,20.86
2022-08-11T00:49:18.487Z,20.82
2022-08-11T00:52:07.924Z,20.81
2022-08-11T00:55:03.442Z,20.78
2022-08-11T00:57:56.682Z,20.74
2022-08-11T01:00:32.184Z,20.69
2022-08-11T01:03:24.818Z,20.66
2022-08-11T01:06:04.622Z,20.65
2022-08-11T01:08:34.151Z,20.59
2022-08-11T01:11:55.200Z,20.59
2022-08-11T01:14:40.037Z,20.52
2022-08-11T01:17:25.354Z,20.50
2022-08-11T01:20:45.517Z,20.46
2022-08-11T01:23:23.286Z,20.36
2022-08-11T01:26:27.315Z,20.25
2022-08-11T01:29:35.639Z,20.23
2022-08-11T01:32:39.720Z,20.14
2022-08-11T01:35:37.364Z,20.17
2022-08-11T01:38:13.054Z,20.15
2022-08-11T01:41:01.009Z,20.11
2022-08-11T01:44:17.247Z,20.07
2022-08-11T01:46:50.281Z,20.00
2022-08-11T01:50:06.897Z,19.92
2022-08-11T01:52:39.947Z,19.94
2022-08-11T01:55:26.669Z,19.88
2022-08-11T01:58:15.258Z,19.85
2022-08-11T02:00:52.328Z,19.85
2022-08-11T02:03:48.171Z,19.82
2022-08-11T02:06:45.950Z,19.78
2022-08-11T02:09:50.051Z,19.70
2022-08-11T02:12:27.179Z,19.63
2022-08-11T02:15:05.535Z,19.57
2022-08-11T02:17:50.107Z,19.58
2022-08-11T02:20:46.395Z,19.62
2022-08-11T02:24:04.191Z,19.58
2022-08-11T02:26:31.738Z,19.53
2022-08-11T02:29:22.500Z,19.52
2022-08-11T02:32:30.218Z,19.50
2022-08-11T02:35:22.005Z,19.50
2022-08-11T02:38:14.248Z,19.49
2022-08-11T02:41:01.867Z,19.49
2022-08-11T02:43:52.656Z,19.43
2022-08-11T02:46:24.664Z,19.38
2022-08-11T02:49:18.166Z,19.36
2022-08-11T02:52:07.073Z,19.33
2022-08-11T02:54:53.518Z,19.26
2022-08-11T02:57:29.272Z,19.25
2022-08-11T03:00:07.475Z,19.20
2022-08-11T03:02:46.232Z,19.18
2022-08-11T03:05:13.758Z,19.18
2022-08-11T03:07:40.144Z,19.18
2022-08-11T03:10:17.287Z,19.21
2022-08-11T03:13:20.025Z,19.14
2022-08-11T03:16:23.057Z,19.12
2022-08-11T03:19:12.096Z,19.08
2022-08-11T03:22:02.521Z,19.02
2022-08-11T03:24:48.320Z,19.04
2022-08-11T03:27:30.398Z,18.96
2022-08-11T03:30:13.464Z,18.97
2022-08-11T03:33:17.552Z,18.94
2022-08-11T03:35:50.661Z,18.93
2022-08-11T03:38:30.396Z,18.92
2022-08-11T03:42:03.814Z,18.89
2022-08-11T03:44:49.983Z,18.85
2022-08-11T03:47:55.061Z,18.90
2022-08-11T03:50:51.879Z,18.96
2022-08-11T03:53:45.344Z,18.96
2022-08-11T03:56:45.450Z,18.86
2022-08-11T03:59:35.968Z,18.89
2022-08-11T04:02:21.061Z,18.86
2022-08-11T04:05:09.369Z,18.87
2022-08-11T04:08:02.085Z,18.85
2022-08-11T04:11:09.649Z,18.84
2022-08-11T04:13:54.731Z,18.82
2022-08-11T04:16:44.509Z,18.76
2022-08-11T04:19:56.429Z,18.74
2022-08-11T04:22:41.671Z,18.72
2022-08-11T04:25:57.863Z,18.72
2022-08-11T04:28:49.857Z,18.68
2022-08-11T04:31:52.271Z,18.70
2022-08-11T04:34:51.510Z,18.71
2022-08-11T04:37:36.404Z,18.68
2022-08-11T04:40:18.010Z,18.63
2022-08-11T04:43:21.352Z,18.60
2022-08-11T04:46:28.470Z,18.55
2022-08-11T04:49:33.831Z,18.57
2022-08-11T04:52:41.711Z,18.56
2022-08-11T04:56:04.175Z,18.55
2022-08-11T04:59:08.291Z,18.55
2022-08-11T05:01:43.803Z,18.61
2022-08-11T05:04:34.913Z,18.68
2022-08-11T05:07:29.044Z,18.72
2022-08-11T05:10:29.635Z,18.89
2022-08-11T05:13:19.504Z,18.98
2022-08-11T05:16:09.974Z,19.07
2022-08-11T05:19:08.702Z,19.26
2022-08-11T05:21:57.297Z,19.71
2022-08-11T05:24:51.785Z,20.00
2022-08-11T05:27:40.157Z,20.31
2022-08-11T05:30:27.573Z,20.45
2022-08-11T05:33:40.524Z,20.76
2022-08-11T05:36:27.401Z,20.93
2022-08-11T05:39:36.508Z,21.12
2022-08-11T05:42:39.237Z,21.36
2022-08-11T05:46:03.204Z,21.58
2022-08-11T05:48:36.392Z,21.80
2022-08-11T05:51:29.907Z,22.01
2022-08-11T05:54:28.377Z,22.20
2022-08-11T05:57:01.543Z,22.36
2022-08-11T05:59:29.503Z,22.43
2022-08-11T06:02:02.612Z,22.54
2022-08-11T06:04:30.214Z,22.53
2022-08-11T06:07:08.796Z,22.69
2022-08-11T06:09:47.014Z,22.84
2022-08-11T06:12:32.459Z,23.08
2022-08-11T06:15:05.782Z,23.23
2022-08-11T06:17:39.039Z,23.43
2022-08-11T06:20:11.777Z,23.58
2022-08-11T06:22:55.793Z,23.67
2022-08-11T06:25:30.083Z,23.81
2022-08-11T06:27:57.369Z,23.94
2022-08-11T06:30:35.054Z,23.99
2022-08-11T06:33:04.626Z,24.09
2022-08-11T06:36:02.665Z,24.24
2022-08-11T06:39:08.475Z,24.37
2022-08-11T06:41:48.365Z,24.50
2022-08-11T06:44:16.497Z,24.48
2022-08-11T06:46:48.071Z,24.41
2022-08-11T06:49:35.192Z,24.58
2022-08-11T06:52:06.014Z,24.78
2022-08-11T06:54:36.266Z,24.95
2022-08-11T06:57:31.644Z,25.20
2022-08-11T07:00:18.415Z,25.30
2022-08-11T07:03:09.065Z,25.24
2022-08-11T07:05:55.593Z,25.55
2022-08-11T07:09:13.930Z,25.81
2022-08-11T07:12:13.653Z,26.19
2022-08-11T07:15:07.939Z,26.36
2022-08-11T07:17:42.560Z,26.67
2022-08-11T07:20:29.448Z,26.89
2022-08-11T07:23:20.070Z,27.09
2022-08-11T07:26:10.240Z,27.12
2022-08-11T07:28:55.939Z,27.09
2022-08-11T07:31:29.193Z,27.16
2022-08-11T07:34:22.680Z,27.42
2022-08-11T07:37:03.457Z,27.76
2022-08-11T07:39:33.897Z,27.84
2022-08-11T07:42:07.212Z,27.91
2022-08-11T07:44:54.970Z,28.10
2022-08-11T07:47:41.598Z,28.39
2022-08-11T07:50:28.102Z,28.71
2022-08-11T07:52:55.620Z,28.80
2022-08-11T07:55:50.750Z,29.01
2022-08-11T07:58:34.097Z,29.16
2022-08-11T08:01:36.665Z,29.44
2022-08-11T08:04:27.809Z,29.65
2022-08-11T08:07:13.720Z,29.90
2022-08-11T08:10:00.478Z,29.95
2022-08-11T08:12:45.802Z,30.19
2022-08-11T08:15:33.558Z,30.35
2022-08-11T08:18:09.442Z,30.61
2022-08-11T08:20:50.864Z,30.83
2022-08-11T08:23:34.440Z,31.00
2022-08-11T08:26:04.482Z,31.07
2022-08-11T08:28:33.282Z,31.22
2022-08-11T08:31:00.288Z,31.25
2022-08-11T08:33:29.607Z,31.24
2022-08-11T08:36:16.237Z,31.37
2022-08-11T08:38:48.958Z,31.54
2022-08-11T08:41:21.984Z,31.85
2022-08-11T08:43:52.051Z,32.00
2022-08-11T08:46:22.255Z,32.11
2022-08-11T08:48:50.341Z,32.34
2022-08-11T08:51:54.874Z,32.50
2022-08-11T08:54:38.041Z,32.75
2022-08-11T08:57:07.967Z,32.89
2022-08-11T08:59:49.122Z,33.24
2022-08-11T09:02:33.948Z,33.46
2022-08-11T09:05:09.826Z,33.62
2022-08-11T09:07:38.681Z,33.54
2022-08-11T09:10:08.321Z,33.83
2022-08-11T09:12:41.559Z,34.00
2022-08-11T09:15:11.513Z,34.13
2022-08-11T09:17:47.498Z,34.32
2022-08-11T09:20:17.434Z,34.42
2022-08-11T09:26:17.612Z,34.69
2022-08-11T09:28:45.954Z,35.05
2022-08-11T09:31:14.535Z,35.24
2022-08-11T09:33:43.194Z,35.33
2022-08-11T09:36:31.056Z,35.54
2022-08-11T09:39:18.496Z,35.89
2022-08-11T09:42:00.806Z,35.97
2022-08-11T09:44:48.869Z,36.26
2022-08-11T09:47:24.666Z,36.11
2022-08-11T09:49:55.038Z,36.18
2022-08-11T09:52:23.659Z,36.17
2022-08-11T09:54:52.259Z,36.33
2022-08-11T09:57:41.812Z,36.37
2022-08-11T10:00:13.600Z,36.43
2022-08-11T10:02:50.260Z,36.60
2022-08-11T10:05:37.819Z,36.61
2022-08-11T10:08:05.754Z,36.54
2022-08-11T10:10:37.644Z,36.85
2022-08-11T10:14:30.421Z,37.10
2022-08-11T10:16:14.422Z,36.99
2022-08-11T10:18:52.286Z,37.00
2022-08-11T10:21:28.926Z,37.20
2022-08-11T10:24:17.543Z,37.53
2022-08-11T10:26:55.071Z,37.72
2022-08-11T10:29:51.959Z,37.50
2022-08-11T10:32:58.050Z,37.73
2022-08-11T10:35:28.038Z,37.65
2022-08-11T10:38:07.414Z,37.87
2022-08-11T10:40:46.824Z,37.97
2022-08-11T10:43:18.797Z,38.05
2022-08-11T10:46:19.824Z,37.80
2022-08-11T10:48:59.064Z,37.99
2022-08-11T10:51:51.042Z,38.01
2022-08-11T10:54:40.153Z,38.09
2022-08-11T10:57:25.558Z,37.60
2022-08-11T10:59:55.045Z,38.04
2022-08-11T11:02:22.490Z,37.90
2022-08-11T11:05:02.923Z,38.33
2022-08-11T11:07:44.333Z,38.72
2022-08-11T11:10:11.186Z,38.37
2022-08-11T11:13:04.274Z,38.69
2022-08-11T11:15:53.157Z,39.05
2022-08-11T11:18:22.617Z,39.33
2022-08-11T11:20:57.871Z,39.49
2022-08-11T11:23:39.653Z,38.76
2022-08-11T11:26:13.130Z,38.74
2022-08-11T11:29:02.996Z,39.23
2022-08-11T11:31:51.610Z,39.63
2022-08-11T11:34:52.936Z,39.85
2022-08-11T11:37:23.673Z,39.64
2022-08-11T11:39:50.786Z,39.65
2022-08-11T11:42:18.527Z,39.48
2022-08-11T11:44:46.945Z,39.32
2022-08-11T11:47:15.484Z,39.64
2022-08-11T11:49:44.065Z,39.47
2022-08-11T11:52:20.116Z,39.34
2022-08-11T11:54:51.350Z,39.52
2022-08-11T11:57:38.947Z,39.72
2022-08-11T12:00:33.172Z,39.80
2022-08-11T12:03:03.681Z,39.69
2022-08-11T12:05:33.372Z,39.93
2022-08-11T12:08:15.920Z,40.28
2022-08-11T12:11:30.689Z,40.32
2022-08-11T12:14:00.579Z,40.31
2022-08-11T12:16:33.384Z,40.17
2022-08-11T12:19:05.221Z,39.88
2022-08-11T12:21:34.019Z,39.86
2022-08-11T12:24:20.625Z,40.15
2022-08-11T12:26:54.433Z,40.44
2022-08-11T12:29:35.365Z,39.93
2022-08-11T12:32:07.318Z,39.60
2022-08-11T12:34:34.068Z,39.80
2022-08-11T12:37:05.532Z,39.12
2022-08-11T12:40:16.023Z,39.26
2022-08-11T12:43:03.883Z,39.16
2022-08-11T12:45:31.489Z,39.19
2022-08-11T12:49:00.477Z,39.70
2022-08-11T12:52:11.160Z,39.70
2022-08-11T12:54:29.818Z,39.81
2022-08-11T12:57:36.789Z,39.64
2022-08-11T13:00:25.354Z,39.57
2022-08-11T13:03:11.946Z,39.84
2022-08-11T13:05:44.967Z,40.25
2022-08-11T13:08:14.968Z,39.80
2022-08-11T13:11:01.534Z,40.02
2022-08-11T13:13:55.226Z,40.08
2022-08-11T13:16:16.175Z,39.88
2022-08-11T13:18:44.238Z,39.70
2022-08-11T13:21:12.967Z,40.01
2022-08-11T13:24:01.507Z,40.23
2022-08-11T13:26:48.305Z,40.02
2022-08-11T13:29:28.541Z,39.48
2022-08-11T13:32:00.263Z,39.32
2022-08-11T13:34:28.430Z,39.46
2022-08-11T13:36:59.248Z,38.99
2022-08-11T13:39:28.423Z,39.35
2022-08-11T13:41:57.264Z,39.58
2022-08-11T13:44:29.923Z,39.73
2022-08-11T13:46:59.182Z,39.65
2022-08-11T13:49:26.338Z,39.88
2022-08-11T13:51:54.943Z,39.20
2022-08-11T13:54:25.946Z,38.70
2022-08-11T13:56:56.055Z,38.74
2022-08-11T13:59:24.020Z,38.37
2022-08-11T14:02:20.678Z,37.75
2022-08-11T14:05:10.022Z,38.23
2022-08-11T14:07:45.463Z,38.43
2022-08-11T14:10:14.454Z,38.47
2022-08-11T14:13:06.210Z,38.25
2022-08-11T14:15:34.886Z,38.45
2022-08-11T14:18:06.386Z,38.46
2022-08-11T14:20:54.021Z,38.18
2022-08-11T14:23:28.853Z,38.33
2022-08-11T14:26:15.057Z,38.28
2022-08-11T14:28:45.030Z,38.51
2022-08-11T14:31:16.226Z,37.84
2022-08-11T14:34:00.513Z,37.66
2022-08-11T14:36:51.495Z,37.44
2022-08-11T14:39:22.183Z,37.90
2022-08-11T14:42:16.714Z,37.49
2022-08-11T14:45:14.488Z,37.44
2022-08-11T14:47:43.936Z,37.03
2022-08-11T14:50:23.093Z,37.15
2022-08-11T14:52:52.585Z,36.77
2022-08-11T14:55:39.945Z,36.91
2022-08-11T14:58:11.099Z,36.74
2022-08-11T15:00:39.238Z,36.91
2022-08-11T15:03:12.682Z,36.96
2022-08-11T15:05:55.981Z,35.88
2022-08-11T15:08:45.869Z,36.00
2022-08-11T15:11:33.273Z,35.72
2022-08-11T15:14:02.251Z,35.68
2022-08-11T15:16:52.498Z,35.59
2022-08-11T15:19:21.383Z,35.27
2022-08-11T15:22:08.391Z,34.88
2022-08-11T15:24:36.581Z,34.86
2022-08-11T15:27:30.917Z,34.73
2022-08-11T15:30:33.012Z,34.50
2022-08-11T15:33:23.223Z,34.39
2022-08-11T15:36:23.575Z,34.21
2022-08-11T15:39:20.920Z,34.03
2022-08-11T15:42:33.716Z,34.13
2022-08-11T15:45:21.326Z,33.49
2022-08-11T15:48:05.813Z,33.54
2022-08-11T15:50:34.889Z,33.50
2022-08-11T15:53:11.771Z,33.17
2022-08-11T15:55:39.229Z,33.34
2022-08-11T15:58:28.137Z,33.42
2022-08-11T16:01:15.618Z,33.27
2022-08-11T16:04:12.807Z,33.21
2022-08-11T16:06:49.923Z,32.97
2022-08-11T16:09:24.998Z,33.14
2022-08-11T16:11:55.686Z,33.04
2022-08-11T16:14:43.015Z,32.94
2022-08-11T16:17:11.848Z,32.84
2022-08-11T16:19:40.951Z,32.87
2022-08-11T16:22:10.238Z,32.94
2022-08-11T16:27:06.987Z,32.68
2022-08-11T16:27:33.945Z,32.84
2022-08-11T16:30:01.745Z,32.69
2022-08-11T16:32:31.151Z,32.58
2022-08-11T16:35:19.637Z,32.50
2022-08-11T16:38:06.022Z,32.52
2022-08-11T16:40:33.535Z,32.49
2022-08-11T16:43:21.770Z,32.35
2022-08-11T16:46:07.970Z,32.44
2022-08-11T16:48:39.003Z,32.50
2022-08-11T16:51:07.682Z,32.52
2022-08-11T16:53:59.570Z,32.50
2022-08-11T16:56:35.237Z,32.47
2022-08-11T16:59:17.634Z,32.50
2022-08-11T17:01:57.969Z,32.50
2022-08-11T17:05:05.375Z,32.43
2022-08-11T17:07:51.511Z,32.32
2022-08-11T17:10:50.970Z,32.14
2022-08-11T17:13:22.514Z,32.00
2022-08-11T17:16:08.925Z,31.94
2022-08-11T17:18:51.217Z,31.81
2022-08-11T17:21:35.642Z,31.71
2022-08-11T17:24:09.486Z,31.83
2022-08-11T17:26:56.791Z,31.63
2022-08-11T17:29:32.041Z,31.60
2022-08-11T17:32:20.146Z,31.53
2022-08-11T17:35:08.177Z,31.54
2022-08-11T17:37:37.537Z,31.55
2022-08-11T17:40:08.967Z,31.45
2022-08-11T17:42:55.101Z,31.51
2022-08-11T17:45:42.373Z,31.38
2022-08-11T17:48:26.160Z,31.40
2022-08-11T17:50:59.157Z,31.53
2022-08-11T17:54:17.037Z,31.32
2022-08-11T17:56:54.111Z,31.27
2022-08-11T17:59:39.606Z,31.32
2022-08-11T18:02:34.420Z,31.28
2022-08-11T18:05:07.417Z,31.27
2022-08-11T18:07:59.877Z,31.24
2022-08-11T18:10:47.506Z,31.10
2022-08-11T18:13:35.327Z,30.99
2022-08-11T18:16:20.276Z,30.80
2022-08-11T18:19:05.218Z,30.86
2022-08-11T18:22:12.920Z,30.77
2022-08-11T18:25:00.327Z,30.71
2022-08-11T18:27:50.155Z,30.71
2022-08-11T18:30:35.529Z,30.62
2022-08-11T18:36:30.097Z,30.52
2022-08-11T18:39:16.567Z,30.47
2022-08-11T18:42:05.290Z,30.36
2022-08-11T18:44:52.395Z,30.30
2022-08-11T18:47:40.513Z,30.18
2022-08-11T18:50:39.616Z,30.10
2022-08-11T18:53:26.468Z,29.86
2022-08-11T18:56:12.391Z,29.62
2022-08-11T18:59:01.448Z,29.57
2022-08-11T19:01:54.976Z,29.43
2022-08-11T19:04:41.210Z,29.18
2022-08-11T19:07:28.127Z,29.14
2022-08-11T19:10:14.415Z,29.12
2022-08-11T19:13:01.255Z,28.98
2022-08-11T19:15:47.717Z,28.90
2022-08-11T19:18:37.674Z,28.60
2022-08-11T19:21:24.951Z,28.64
2022-08-11T19:24:12.741Z,28.58
2022-08-11T19:26:59.021Z,28.32
2022-08-11T19:30:09.064Z,28.28
2022-08-11T19:32:51.223Z,28.04
2022-08-11T19:35:37.544Z,28.02
2022-08-11T19:38:23.651Z,27.92
2022-08-11T19:41:09.901Z,27.95
2022-08-11T19:43:57.068Z,27.90
2022-08-11T19:46:44.053Z,27.86
2022-08-11T19:49:29.233Z,27.78
2022-08-11T19:52:16.015Z,27.75
2022-08-11T19:55:03.216Z,27.57
2022-08-11T19:57:50.046Z,27.52
2022-08-11T20:00:37.746Z,27.48
2022-08-11T20:03:25.704Z,27.45
2022-08-11T20:06:13.657Z,27.45
2022-08-11T20:09:02.125Z,27.31
2022-08-11T20:11:51.960Z,27.28
2022-08-11T20:14:39.423Z,27.20
2022-08-11T20:17:26.367Z,27.11
2022-08-11T20:20:11.664Z,27.05
2022-08-11T20:22:58.251Z,26.93
2022-08-11T20:25:44.349Z,26.85
2022-08-11T20:28:31.677Z,26.81
2022-08-11T20:31:16.930Z,26.76
2022-08-11T20:34:03.162Z,26.72
2022-08-11T20:36:54.082Z,26.69
2022-08-11T20:39:41.366Z,26.57
2022-08-11T20:42:30.446Z,26.51
2022-08-11T20:45:18.794Z,26.47
2022-08-11T20:48:14.892Z,26.40
2022-08-11T20:51:07.380Z,26.30
2022-08-11T20:53:59.167Z,26.19
2022-08-11T20:56:53.518Z,26.11
2022-08-11T20:59:49.433Z,26.00
2022-08-11T21:02:44.426Z,25.94
2022-08-11T21:06:09.009Z,25.95
2022-08-11T21:08:36.632Z,25.90
2022-08-11T21:11:27.641Z,25.88
2022-08-11T21:14:13.591Z,26.08
2022-08-11T21:17:00.528Z,26.05
2022-08-11T21:20:06.678Z,26.03
2022-08-11T21:23:05.464Z,26.00
2022-08-11T21:25:59.255Z,25.85
2022-08-11T21:28:47.183Z,25.53
2022-08-11T21:31:33.445Z,25.46
2022-08-11T21:34:19.735Z,25.40
2022-08-11T21:37:07.752Z,25.38
2022-08-11T21:39:53.430Z,25.30
2022-08-11T21:42:40.222Z,25.23
2022-08-11T21:45:28.909Z,25.04
2022-08-11T21:48:15.193Z,25.04
2022-08-11T21:51:00.004Z,24.87
2022-08-11T21:53:46.240Z,25.02
2022-08-11T21:56:34.886Z,25.00
2022-08-11T21:59:20.646Z,24.89
2022-08-11T22:02:12.419Z,24.88
2022-08-11T22:04:58.362Z,24.83
2022-08-11T22:07:43.705Z,24.79
2022-08-11T22:10:42.251Z,24.69
2022-08-11T22:13:31.424Z,24.68
2022-08-11T22:16:19.869Z,24.65
2022-08-11T22:19:06.024Z,24.50
2022-08-11T22:22:02.366Z,24.52
2022-08-11T22:24:52.041Z,24.48
2022-08-11T22:27:39.159Z,24.44
2022-08-11T22:30:28.633Z,24.45
2022-08-11T22:33:16.375Z,24.36
2022-08-11T22:36:03.662Z,24.46
2022-08-11T22:38:51.142Z,24.58
2022-08-11T22:41:36.397Z,24.62
2022-08-11T22:44:24.901Z,24.56
2022-08-11T22:47:12.204Z,24.29
2022-08-11T22:49:58.677Z,24.16
2022-08-11T22:52:46.673Z,24.11
2022-08-11T22:55:34.713Z,24.06
2022-08-11T22:58:21.982Z,24.04
2022-08-11T23:01:08.343Z,23.92
2022-08-11T23:03:54.060Z,23.86
2022-08-11T23:06:40.464Z,23.82
2022-08-11T23:09:27.406Z,23.79
2022-08-11T23:12:12.811Z,23.71
2022-08-11T23:14:59.644Z,23.70
2022-08-11T23:17:46.529Z,23.66
2022-08-11T23:20:42.358Z,23.56
2022-08-11T23:23:32.140Z,23.52
2022-08-11T23:26:18.626Z,23.47
2022-08-11T23:29:05.359Z,23.43
2022-08-11T23:31:53.914Z,23.30
2022-08-11T23:35:37.132Z,23.40
2022-08-11T23:37:47.021Z,23.39
2022-08-11T23:40:32.082Z,23.35
2022-08-11T23:43:17.018Z,23.32
2022-08-11T23:46:01.999Z,23.31
2022-08-11T23:48:48.849Z,23.18
2022-08-11T23:54:26.900Z,23.10
2022-08-11T23:57:13.121Z,23.02
2022-08-11T23:59:58.537Z,23.00
